Řízení letového provozu České republiky
Letiste: LKCV Aktualizace: 18.08.2018 11:01:06  UTC
 METAR LKCV 18.08. 11:00 ...
METAR LKCV 181100Z 28005KT 220V320 CAVOK 28/13 Q1019 NOSIG RMK BLU BLU=
 TAF LKCV 18.08. 05:00 ...
TAF LKCV 180500Z 1806/1906 VRB02KT CAVOK      TEMPO 1811/1822 03008KT=